createdAt,value
2023-04-04T00:01:09.017Z,1.95
2023-04-04T00:03:36.958Z,1.90
2023-04-04T00:06:05.004Z,1.70
2023-04-04T00:08:34.039Z,1.85
2023-04-04T00:11:02.019Z,1.90
2023-04-04T00:13:30.101Z,2.13
2023-04-04T00:15:58.830Z,1.90
2023-04-04T00:18:26.651Z,1.83
2023-04-04T00:20:54.519Z,1.98
2023-04-04T00:23:22.227Z,1.88
2023-04-04T00:25:54.362Z,2.05
2023-04-04T00:28:22.935Z,2.30
2023-04-04T00:30:50.679Z,2.00
2023-04-04T00:33:18.630Z,1.90
2023-04-04T00:35:46.595Z,1.98
2023-04-04T00:38:14.301Z,1.67
2023-04-04T00:40:44.844Z,2.30
2023-04-04T00:43:14.844Z,2.42
2023-04-04T00:45:42.816Z,1.70
2023-04-04T00:48:10.715Z,1.73
2023-04-04T00:50:38.650Z,1.70
2023-04-04T00:53:06.735Z,1.50
2023-04-04T00:55:35.229Z,2.03
2023-04-04T00:58:03.039Z,1.80
2023-04-04T01:00:34.245Z,2.00
2023-04-04T01:03:02.595Z,2.45
2023-04-04T01:05:30.656Z,2.00
2023-04-04T01:07:58.804Z,1.75
2023-04-04T01:10:26.565Z,2.22
2023-04-04T01:12:54.317Z,1.67
2023-04-04T01:15:22.121Z,1.75
2023-04-04T01:17:52.945Z,2.10
2023-04-04T01:20:26.330Z,1.98
2023-04-04T01:22:56.404Z,1.88
2023-04-04T01:25:32.818Z,1.98
2023-04-04T01:28:00.626Z,1.98
2023-04-04T01:30:32.676Z,2.35
2023-04-04T01:33:09.426Z,1.98
2023-04-04T01:35:42.425Z,2.00
2023-04-04T01:38:18.853Z,1.88
2023-04-04T01:40:50.835Z,2.08
2023-04-04T01:43:18.927Z,2.13
2023-04-04T01:45:46.960Z,2.10
2023-04-04T01:48:16.667Z,1.73
2023-04-04T01:50:44.432Z,2.10
2023-04-04T01:53:12.128Z,1.98
2023-04-04T01:55:39.828Z,2.03
2023-04-04T01:58:08.936Z,1.83
2023-04-04T02:00:36.786Z,1.98
2023-04-04T02:03:04.813Z,2.20
2023-04-04T02:05:32.565Z,2.00
2023-04-04T02:08:00.526Z,2.28
2023-04-04T02:10:28.256Z,2.30
2023-04-04T02:12:56.025Z,1.88
2023-04-04T02:15:25.298Z,2.10
2023-04-04T02:17:53.774Z,2.10
2023-04-04T02:20:21.532Z,1.75
2023-04-04T02:22:53.881Z,1.80
2023-04-04T02:25:22.323Z,2.00
2023-04-04T02:27:50.533Z,2.00
2023-04-04T02:30:19.427Z,1.83
2023-04-04T02:32:48.974Z,1.80
2023-04-04T02:35:17.827Z,2.22
2023-04-04T02:37:47.152Z,2.33
2023-04-04T02:40:15.823Z,2.03
2023-04-04T02:42:44.754Z,2.03
2023-04-04T02:45:14.864Z,2.20
2023-04-04T02:47:43.557Z,1.98
2023-04-04T02:50:13.006Z,3.10
2023-04-04T02:52:40.708Z,1.95
2023-04-04T02:55:09.460Z,2.10
2023-04-04T02:57:37.235Z,2.08
2023-04-04T03:00:05.566Z,2.47
2023-04-04T03:02:33.458Z,2.45
2023-04-04T03:05:01.251Z,2.00
2023-04-04T03:07:30.336Z,2.30
2023-04-04T03:09:58.500Z,2.15
2023-04-04T03:12:27.746Z,2.13
2023-04-04T03:14:55.499Z,2.15
2023-04-04T03:17:23.297Z,2.25
2023-04-04T03:19:51.089Z,2.30
2023-04-04T03:22:18.817Z,2.80
2023-04-04T03:24:47.853Z,2.08
2023-04-04T03:27:16.163Z,2.15
2023-04-04T03:29:43.846Z,2.03
2023-04-04T03:32:11.887Z,2.20
2023-04-04T03:34:39.673Z,2.15
2023-04-04T03:37:07.944Z,2.00
2023-04-04T03:39:35.953Z,2.20
2023-04-04T03:42:05.197Z,2.30
2023-04-04T03:44:32.917Z,1.98
2023-04-04T03:47:00.585Z,2.42
2023-04-04T03:49:28.304Z,2.55
2023-04-04T03:51:55.973Z,2.80
2023-04-04T03:54:23.782Z,2.15
2023-04-04T03:56:53.005Z,3.03
2023-04-04T03:59:22.991Z,2.05
2023-04-04T04:01:51.000Z,2.28
2023-04-04T04:04:18.808Z,2.53
2023-04-04T04:06:48.752Z,2.17
2023-04-04T04:09:16.703Z,2.33
2023-04-04T04:11:44.412Z,2.30
2023-04-04T04:14:13.073Z,2.30
2023-04-04T04:16:42.424Z,1.92
2023-04-04T04:19:10.681Z,2.88
2023-04-04T04:21:38.334Z,2.55
2023-04-04T04:24:06.776Z,2.55
2023-04-04T04:26:34.444Z,2.92
2023-04-04T04:29:02.467Z,2.72
2023-04-04T04:31:30.484Z,2.55
2023-04-04T04:33:59.608Z,2.35
2023-04-04T04:36:27.516Z,3.03
2023-04-04T04:38:55.450Z,2.58
2023-04-04T04:41:23.240Z,2.45
2023-04-04T04:43:51.218Z,2.05
2023-04-04T04:46:18.981Z,1.95
2023-04-04T04:48:46.766Z,2.65
2023-04-04T04:51:15.972Z,2.85
2023-04-04T04:53:43.659Z,2.45
2023-04-04T04:56:11.664Z,2.85
2023-04-04T04:58:39.538Z,2.90
2023-04-04T05:01:07.665Z,2.40
2023-04-04T05:03:36.128Z,2.60
2023-04-04T05:06:04.022Z,2.63
2023-04-04T05:08:33.387Z,2.67
2023-04-04T05:11:01.830Z,2.63
2023-04-04T05:13:31.067Z,2.88
2023-04-04T05:15:59.237Z,2.60
2023-04-04T05:18:27.566Z,2.60
2023-04-04T05:20:55.812Z,2.88
2023-04-04T05:23:23.638Z,2.22
2023-04-04T05:25:53.434Z,2.60
2023-04-04T05:28:21.958Z,2.40
2023-04-04T05:30:50.174Z,2.63
2023-04-04T05:33:17.864Z,2.38
2023-04-04T05:35:45.773Z,3.47
2023-04-04T05:38:13.572Z,2.33
2023-04-04T05:40:41.581Z,2.78
2023-04-04T05:43:10.921Z,2.97
2023-04-04T05:45:40.511Z,3.65
2023-04-04T05:48:09.122Z,2.90
2023-04-04T05:50:36.842Z,3.38
2023-04-04T05:53:05.198Z,2.88
2023-04-04T05:55:32.973Z,2.88
2023-04-04T05:58:00.752Z,3.08
2023-04-04T06:00:30.064Z,2.80
2023-04-04T06:02:58.551Z,3.03
2023-04-04T06:05:26.509Z,3.20
2023-04-04T06:07:54.178Z,3.20
2023-04-04T06:10:22.093Z,2.63
2023-04-04T06:12:51.021Z,2.95
2023-04-04T06:15:18.729Z,2.75
2023-04-04T06:17:47.932Z,2.78
2023-04-04T06:20:15.716Z,2.70
2023-04-04T06:22:43.459Z,3.17
2023-04-04T06:25:11.507Z,2.40
2023-04-04T06:27:39.254Z,3.22
2023-04-04T06:30:10.297Z,2.80
2023-04-04T06:32:39.964Z,2.88
2023-04-04T06:35:10.408Z,3.05
2023-04-04T06:37:38.120Z,3.25
2023-04-04T06:40:07.135Z,2.70
2023-04-04T06:42:34.927Z,3.08
2023-04-04T06:45:03.544Z,2.90
2023-04-04T06:47:31.298Z,3.13
2023-04-04T06:49:59.086Z,2.70
2023-04-04T06:52:28.315Z,3.53
2023-04-04T06:54:56.923Z,2.80
2023-04-04T06:57:24.609Z,3.45
2023-04-04T06:59:52.480Z,2.95
2023-04-04T07:02:20.270Z,3.00
2023-04-04T07:04:48.044Z,2.88
2023-04-04T07:07:16.173Z,2.88
2023-04-04T07:09:45.352Z,3.45
2023-04-04T07:12:13.106Z,3.03
2023-04-04T07:14:40.809Z,3.42
2023-04-04T07:17:21.219Z,3.47
2023-04-04T07:19:51.730Z,2.78
2023-04-04T07:22:19.542Z,2.90
2023-04-04T07:24:49.408Z,3.58
2023-04-04T07:27:17.366Z,2.80
2023-04-04T07:29:45.055Z,2.60
2023-04-04T07:32:12.785Z,2.95
2023-04-04T07:34:40.553Z,3.10
2023-04-04T07:37:08.309Z,2.92
2023-04-04T07:39:36.692Z,2.65
2023-04-04T07:42:05.889Z,2.65
2023-04-04T07:44:33.582Z,2.42
2023-04-04T07:47:09.216Z,2.40
2023-04-04T07:49:38.297Z,2.72
2023-04-04T07:52:06.371Z,2.67
2023-04-04T07:54:34.147Z,2.83
2023-04-04T07:57:02.043Z,2.28
2023-04-04T07:59:31.303Z,2.78
2023-04-04T08:01:59.024Z,2.47
2023-04-04T08:04:26.802Z,2.13
2023-04-04T08:06:54.641Z,2.30
2023-04-04T08:09:22.312Z,2.08
2023-04-04T08:11:50.067Z,2.45
2023-04-04T08:14:17.844Z,2.30
2023-04-04T08:16:47.361Z,2.42
2023-04-04T08:19:16.562Z,2.65
2023-04-04T08:21:44.747Z,2.10
2023-04-04T08:24:12.923Z,1.85
2023-04-04T08:26:41.487Z,1.88
2023-04-04T08:29:10.204Z,2.28
2023-04-04T08:31:39.261Z,2.25
2023-04-04T08:34:08.882Z,1.95
2023-04-04T08:36:36.757Z,1.95
2023-04-04T08:39:05.068Z,1.77
2023-04-04T08:41:35.730Z,1.50
2023-04-04T08:44:05.534Z,2.22
2023-04-04T08:46:34.137Z,2.15
2023-04-04T08:49:04.725Z,1.60
2023-04-04T08:51:34.879Z,1.88
2023-04-04T08:54:03.777Z,1.83
2023-04-04T08:56:31.463Z,1.67
2023-04-04T08:58:59.413Z,2.15
2023-04-04T09:01:29.743Z,1.50
2023-04-04T09:03:59.456Z,1.83
2023-04-04T09:06:27.998Z,1.48
2023-04-04T09:08:59.408Z,1.90
2023-04-04T09:11:28.482Z,1.92
2023-04-04T09:13:58.519Z,2.35
2023-04-04T09:16:28.522Z,1.48
2023-04-04T09:18:56.334Z,1.73
2023-04-04T09:21:24.112Z,1.98
2023-04-04T09:24:01.171Z,1.80
2023-04-04T09:26:29.005Z,1.33
2023-04-04T09:28:56.986Z,2.05
2023-04-04T09:31:25.649Z,1.80
2023-04-04T09:33:53.492Z,1.73
2023-04-04T09:36:21.298Z,1.80
2023-04-04T09:38:49.804Z,1.67
2023-04-04T09:41:20.843Z,1.50
2023-04-04T09:43:49.411Z,1.65
2023-04-04T09:46:20.534Z,1.70
2023-04-04T09:48:50.605Z,1.48
2023-04-04T09:51:18.423Z,1.70
2023-04-04T09:53:49.270Z,1.50
2023-04-04T09:56:17.153Z,1.55
2023-04-04T09:59:00.666Z,1.33
2023-04-04T10:01:31.546Z,1.85
2023-04-04T10:03:59.674Z,1.50
2023-04-04T10:06:28.226Z,1.80
2023-04-04T10:08:58.427Z,1.80
2023-04-04T10:11:31.904Z,1.75
2023-04-04T10:14:02.708Z,1.77
2023-04-04T10:16:33.734Z,1.55
2023-04-04T10:19:03.059Z,1.75
2023-04-04T10:21:31.404Z,1.80
2023-04-04T10:24:00.377Z,1.73
2023-04-04T10:26:28.145Z,1.80
2023-04-04T10:28:56.305Z,1.98
2023-04-04T10:31:27.289Z,1.58
2023-04-04T10:34:05.123Z,2.42
2023-04-04T10:36:41.715Z,1.50
2023-04-04T10:39:15.591Z,2.03
2023-04-04T10:41:43.666Z,1.50
2023-04-04T10:44:19.675Z,1.77
2023-04-04T10:46:54.961Z,1.20
2023-04-04T10:49:23.445Z,1.60
2023-04-04T10:51:56.211Z,1.80
2023-04-04T10:54:25.067Z,1.65
2023-04-04T10:56:53.571Z,1.77
2023-04-04T10:59:21.929Z,2.22
2023-04-04T11:01:56.789Z,1.80
2023-04-04T11:04:33.004Z,2.20
2023-04-04T11:07:12.283Z,2.08
2023-04-04T11:09:54.387Z,1.92
2023-04-04T11:12:24.291Z,1.70
2023-04-04T11:15:10.242Z,1.40
2023-04-04T11:17:52.806Z,2.00
2023-04-04T11:20:22.502Z,1.95
2023-04-04T11:22:51.585Z,1.90
2023-04-04T11:25:50.768Z,2.38
2023-04-04T11:28:28.005Z,1.92
2023-04-04T11:31:25.042Z,1.95
2023-04-04T11:34:00.986Z,2.22
2023-04-04T11:36:52.375Z,1.77
2023-04-04T11:39:28.469Z,1.90
2023-04-04T11:41:58.879Z,1.30
2023-04-04T11:44:30.380Z,1.88
2023-04-04T11:47:04.893Z,1.42
2023-04-04T11:49:36.224Z,1.55
2023-04-04T11:52:07.472Z,1.98
2023-04-04T11:54:36.075Z,2.22
2023-04-04T11:57:03.886Z,1.65
2023-04-04T11:59:31.731Z,2.05
2023-04-04T12:02:01.192Z,1.83
2023-04-04T12:04:29.228Z,1.70
2023-04-04T12:06:58.326Z,2.22
2023-04-04T12:09:30.118Z,1.95
2023-04-04T12:11:59.358Z,2.30
2023-04-04T12:14:27.327Z,1.38
2023-04-04T12:16:56.734Z,1.80
2023-04-04T12:19:24.956Z,2.67
2023-04-04T12:21:53.689Z,2.58
2023-04-04T12:24:23.010Z,2.28
2023-04-04T12:26:52.897Z,1.95
2023-04-04T12:29:23.235Z,2.42
2023-04-04T12:31:52.643Z,2.10
2023-04-04T12:34:24.379Z,1.90
2023-04-04T12:36:54.096Z,2.55
2023-04-04T12:39:24.314Z,2.10
2023-04-04T12:41:57.133Z,3.08
2023-04-04T12:44:30.545Z,3.20
2023-04-04T12:47:01.065Z,2.50
2023-04-04T12:49:31.172Z,2.45
2023-04-04T12:52:03.795Z,2.97
2023-04-04T12:54:35.098Z,2.30
2023-04-04T12:57:05.699Z,2.30
2023-04-04T12:59:35.526Z,2.35
2023-04-04T13:02:05.326Z,2.63
2023-04-04T13:04:33.344Z,1.80
2023-04-04T13:07:02.000Z,2.00
2023-04-04T13:09:30.070Z,2.20
2023-04-04T13:12:01.833Z,2.25
2023-04-04T13:14:30.531Z,2.00
2023-04-04T13:17:08.057Z,2.15
2023-04-04T13:19:36.003Z,1.75
2023-04-04T13:22:03.912Z,2.00
2023-04-04T13:24:31.643Z,1.73
2023-04-04T13:27:00.949Z,2.35
2023-04-04T13:29:28.653Z,1.90
2023-04-04T13:31:56.518Z,2.15
2023-04-04T13:34:24.708Z,1.77
2023-04-04T13:36:52.500Z,1.88
2023-04-04T13:39:20.916Z,1.77
2023-04-04T13:41:48.640Z,1.55
2023-04-04T13:44:17.891Z,1.60
2023-04-04T13:46:45.611Z,2.03
2023-04-04T13:49:13.307Z,1.80
2023-04-04T13:51:41.064Z,1.98
2023-04-04T13:54:08.771Z,2.28
2023-04-04T13:56:36.502Z,2.08
2023-04-04T13:59:04.182Z,1.83
2023-04-04T14:01:33.612Z,1.80
2023-04-04T14:04:07.389Z,1.70
2023-04-04T14:06:40.970Z,1.35
2023-04-04T14:09:08.633Z,2.10
2023-04-04T14:11:36.372Z,1.55
2023-04-04T14:14:04.094Z,1.80
2023-04-04T14:16:33.209Z,1.60
2023-04-04T14:19:01.024Z,1.65
2023-04-04T14:21:29.507Z,2.72
2023-04-04T14:23:57.200Z,1.80
2023-04-04T14:26:24.992Z,1.80
2023-04-04T14:28:52.742Z,2.35
2023-04-04T14:31:20.479Z,1.40
2023-04-04T14:33:49.623Z,1.73
2023-04-04T14:36:18.966Z,1.50
2023-04-04T14:38:47.306Z,2.30
2023-04-04T14:41:16.191Z,1.70
2023-04-04T14:43:44.814Z,1.60
2023-04-04T14:46:12.607Z,2.03
2023-04-04T14:48:40.400Z,2.20
2023-04-04T14:51:09.519Z,2.20
2023-04-04T14:53:37.533Z,1.85
2023-04-04T14:56:05.531Z,2.10
2023-04-04T14:58:33.348Z,2.13
2023-04-04T15:01:01.289Z,2.60
2023-04-04T15:03:29.303Z,2.20
2023-04-04T15:05:57.456Z,1.92
2023-04-04T15:08:26.604Z,2.05
2023-04-04T15:10:54.376Z,1.65
2023-04-04T15:13:22.170Z,2.13
2023-04-04T15:15:50.112Z,2.30
2023-04-04T15:18:18.241Z,1.83
2023-04-04T15:20:46.169Z,2.08
2023-04-04T15:23:14.275Z,2.53
2023-04-04T15:25:43.333Z,2.15
2023-04-04T15:28:11.052Z,3.00
2023-04-04T15:30:39.064Z,1.80
2023-04-04T15:33:07.558Z,3.15
2023-04-04T15:35:35.481Z,2.63
2023-04-04T15:38:03.143Z,2.20
2023-04-04T15:40:30.972Z,2.70
2023-04-04T15:43:00.321Z,2.30
2023-04-04T15:45:28.306Z,2.17
2023-04-04T15:47:56.182Z,2.33
2023-04-04T15:50:23.892Z,2.17
2023-04-04T15:52:51.645Z,2.15
2023-04-04T15:55:20.866Z,2.30
2023-04-04T15:57:49.841Z,2.72
2023-04-04T16:00:19.324Z,2.60
2023-04-04T16:02:47.126Z,2.10
2023-04-04T16:05:14.881Z,2.38
2023-04-04T16:07:42.618Z,1.85
2023-04-04T16:10:11.585Z,2.40
2023-04-04T16:12:39.293Z,2.47
2023-04-04T16:15:08.689Z,2.38
2023-04-04T16:17:37.968Z,2.55
2023-04-04T16:20:07.385Z,2.20
2023-04-04T16:22:35.248Z,2.05
2023-04-04T16:25:03.084Z,2.10
2023-04-04T16:27:30.805Z,2.53
2023-04-04T16:29:58.549Z,2.70
2023-04-04T16:32:26.405Z,2.55
2023-04-04T16:34:55.561Z,2.10
2023-04-04T16:37:23.363Z,2.45
2023-04-04T16:39:52.025Z,2.08
2023-04-04T16:42:19.799Z,2.50
2023-04-04T16:44:47.921Z,2.40
2023-04-04T16:47:15.917Z,2.03
2023-04-04T16:49:43.828Z,2.63
2023-04-04T16:52:14.756Z,2.85
2023-04-04T16:54:42.723Z,2.53
2023-04-04T16:57:11.124Z,2.38
2023-04-04T16:59:38.959Z,2.40
2023-04-04T17:02:08.132Z,2.05
2023-04-04T17:04:36.740Z,2.83
2023-04-04T17:07:05.316Z,2.17
2023-04-04T17:09:35.736Z,2.53
2023-04-04T17:12:03.621Z,1.95
2023-04-04T17:14:31.398Z,1.90
2023-04-04T17:17:00.511Z,2.17
2023-04-04T17:19:29.904Z,2.08
2023-04-04T17:21:58.191Z,2.53
2023-04-04T17:24:27.309Z,2.35
2023-04-04T17:26:57.918Z,2.50
2023-04-04T17:29:27.507Z,2.20
2023-04-04T17:31:55.771Z,1.42
2023-04-04T17:34:24.494Z,2.67
2023-04-04T17:36:52.579Z,2.25
2023-04-04T17:39:20.674Z,2.05
2023-04-04T17:41:49.299Z,2.20
2023-04-04T17:44:20.296Z,2.17
2023-04-04T17:46:48.253Z,2.22
2023-04-04T17:49:19.427Z,2.20
2023-04-04T17:51:47.976Z,2.20
2023-04-04T17:54:15.739Z,2.25
2023-04-04T17:56:46.067Z,2.65
2023-04-04T17:59:14.739Z,2.03
2023-04-04T18:01:44.201Z,2.30
2023-04-04T18:04:12.115Z,2.45
2023-04-04T18:06:41.658Z,2.78
2023-04-04T18:09:10.160Z,2.80
2023-04-04T18:11:38.142Z,2.20
2023-04-04T18:14:06.143Z,2.20
2023-04-04T18:16:39.832Z,2.25
2023-04-04T18:19:11.029Z,2.00
2023-04-04T18:21:39.244Z,2.17
2023-04-04T18:24:11.006Z,2.20
2023-04-04T18:26:38.773Z,2.20
2023-04-04T18:29:06.591Z,2.35
2023-04-04T18:31:34.375Z,2.38
2023-04-04T18:34:02.124Z,1.80
2023-04-04T18:36:31.388Z,2.10
2023-04-04T18:39:01.087Z,2.40
2023-04-04T18:41:28.912Z,2.65
2023-04-04T18:43:57.053Z,2.13
2023-04-04T18:46:24.869Z,2.45
2023-04-04T18:48:52.588Z,2.58
2023-04-04T18:51:22.150Z,2.53
2023-04-04T18:53:52.650Z,2.25
2023-04-04T18:56:21.535Z,2.72
2023-04-04T18:58:49.481Z,2.58
2023-04-04T19:01:17.388Z,2.40
2023-04-04T19:03:47.083Z,1.88
2023-04-04T19:06:16.143Z,2.13
2023-04-04T19:08:44.978Z,2.38
2023-04-04T19:11:15.652Z,1.95
2023-04-04T19:13:43.544Z,3.10
2023-04-04T19:16:11.361Z,2.80
2023-04-04T19:18:39.074Z,2.40
2023-04-04T19:21:08.351Z,2.58
2023-04-04T19:23:37.230Z,2.70
2023-04-04T19:26:04.960Z,2.53
2023-04-04T19:28:34.070Z,1.98
2023-04-04T19:31:04.370Z,2.92
2023-04-04T19:33:34.050Z,2.72
2023-04-04T19:36:09.069Z,2.25
2023-04-04T19:38:37.813Z,2.92
2023-04-04T19:41:24.776Z,2.25
2023-04-04T19:43:53.926Z,3.30
2023-04-04T19:46:26.388Z,2.80
2023-04-04T19:48:55.227Z,2.60
2023-04-04T19:51:48.914Z,2.90
2023-04-04T19:54:16.887Z,2.50
2023-04-04T19:56:47.426Z,2.63
2023-04-04T19:59:58.625Z,2.80
2023-04-04T20:02:55.109Z,2.65
2023-04-04T20:06:02.961Z,2.47
2023-04-04T20:08:37.480Z,3.15
2023-04-04T20:11:06.425Z,3.08
2023-04-04T20:13:35.997Z,4.00
2023-04-04T20:16:10.913Z,2.97
2023-04-04T20:18:40.548Z,3.50
2023-04-04T20:21:11.298Z,2.65
2023-04-04T20:23:52.407Z,2.60
2023-04-04T20:26:43.765Z,3.17
2023-04-04T20:29:12.979Z,3.08
2023-04-04T20:31:44.389Z,3.10
2023-04-04T20:34:31.255Z,2.78
2023-04-04T20:36:58.963Z,2.88
2023-04-04T20:39:40.549Z,3.55
2023-04-04T20:42:33.991Z,2.95
2023-04-04T20:45:13.523Z,3.50
2023-04-04T20:47:47.102Z,3.53
2023-04-04T20:50:42.925Z,3.28
2023-04-04T20:53:22.984Z,3.20
2023-04-04T20:55:51.454Z,4.07
2023-04-04T20:58:36.917Z,3.80
2023-04-04T21:01:14.476Z,3.15
2023-04-04T21:03:45.127Z,3.03
2023-04-04T21:06:14.887Z,3.47
2023-04-04T21:08:44.738Z,3.55
2023-04-04T21:11:13.567Z,3.17
2023-04-04T21:13:42.765Z,3.60
2023-04-04T21:16:12.322Z,3.35
2023-04-04T21:18:41.872Z,3.63
2023-04-04T21:21:13.280Z,4.30
2023-04-04T21:23:46.061Z,2.95
2023-04-04T21:26:27.515Z,3.70
2023-04-04T21:28:55.627Z,3.65
2023-04-04T21:31:26.086Z,3.50
2023-04-04T21:33:56.021Z,3.50
2023-04-04T21:36:29.848Z,3.97
2023-04-04T21:38:59.043Z,3.30
2023-04-04T21:41:28.601Z,3.42
2023-04-04T21:43:57.961Z,3.72
2023-04-04T21:46:27.135Z,3.45
2023-04-04T21:48:55.882Z,4.10
2023-04-04T21:51:23.844Z,3.92
2023-04-04T21:53:53.140Z,4.78
2023-04-04T21:56:21.216Z,4.20
2023-04-04T21:58:50.778Z,4.00
2023-04-04T22:01:18.582Z,4.22
2023-04-04T22:03:46.296Z,4.13
2023-04-04T22:06:14.037Z,3.75
2023-04-04T22:08:41.951Z,3.65
2023-04-04T22:11:14.206Z,4.68
2023-04-04T22:13:46.909Z,4.00
2023-04-04T22:16:16.934Z,4.13
2023-04-04T22:18:46.906Z,4.43
2023-04-04T22:21:16.063Z,4.20
2023-04-04T22:23:44.706Z,4.18
2023-04-04T22:26:17.448Z,3.95
2023-04-04T22:28:48.025Z,4.65
2023-04-04T22:31:16.201Z,3.88
2023-04-04T22:33:44.160Z,4.05
2023-04-04T22:36:11.889Z,4.93
2023-04-04T22:38:40.317Z,4.50
2023-04-04T22:41:08.048Z,4.30
2023-04-04T22:43:37.120Z,4.72
2023-04-04T22:46:05.014Z,4.47
2023-04-04T22:48:41.185Z,4.43
2023-04-04T22:51:09.082Z,5.15
2023-04-04T22:53:36.736Z,4.55
2023-04-04T22:56:04.606Z,4.65
2023-04-04T22:58:32.330Z,4.30
2023-04-04T23:01:01.371Z,4.90
2023-04-04T23:03:29.089Z,4.90
2023-04-04T23:05:56.817Z,4.32
2023-04-04T23:08:24.564Z,4.80
2023-04-04T23:10:52.292Z,5.07
2023-04-04T23:13:20.027Z,4.35
2023-04-04T23:15:47.766Z,5.00
2023-04-04T23:18:17.634Z,4.63
2023-04-04T23:20:45.633Z,4.40
2023-04-04T23:23:13.280Z,5.07
2023-04-04T23:25:41.310Z,5.15
2023-04-04T23:28:08.997Z,4.10
2023-04-04T23:30:36.674Z,4.85
2023-04-04T23:33:04.557Z,5.20
2023-04-04T23:35:33.682Z,4.72
2023-04-04T23:38:01.388Z,4.93
2023-04-04T23:40:29.068Z,5.18
2023-04-04T23:42:56.767Z,4.13
2023-04-04T23:45:24.628Z,4.32
2023-04-04T23:47:52.349Z,4.50
2023-04-04T23:50:20.109Z,4.43
2023-04-04T23:52:49.249Z,4.65
2023-04-04T23:55:19.006Z,4.03
2023-04-04T23:57:46.956Z,4.55
